Creole, LA (70632)

1:59 AM CDT on October 20, 2019 (GMT -0500)
Grand View Lodge | | Change Station
Active Advisory: Coastal Flood Advisory Active Notice: Coastal Flood Advisory

Elev 16 ft 29.84 °N, 93.00 °W | Updated 4 seconds ago

Clear
Clear
75.2 °F
Feels Like 73 °F
N
2
Wind Variable Wind from SSE
Gusts 3.0 mph

Today
High -- | Low -- °F
--% Chance of Precip.
Yesterday
High -- | Low -- °F
Precip. -- in
Pressure 29.82 in
Visibility 10.0 miles
Clouds Scattered Clouds 3800 ft
Heat Index 73 °F
Dew Point Not available.
Humidity Not available.
Rainfall 0.00 in
Snow Depth Not available.
7:16 AM 6:36 PM
Waning Gibbous, 63% visible
METAR KLCH 200653Z AUTO 19003KT 10SM SCT038 24/23 A2980 RMK AO2 SLP098 T02440233
Pressure 29.82 in
Visibility 10.0 miles
Clouds Scattered Clouds 3800 ft
Heat Index 73 °F
Dew Point Not available.
Humidity Not available.
Rainfall 0.00 in
Snow Depth Not available.
7:16 AM 6:36 PM
Waning Gibbous, 63% visible
METAR KLCH 200653Z AUTO 19003KT 10SM SCT038 24/23 A2980 RMK AO2 SLP098 T02440233

Get Your Daily Forecast Email!

Thanks for signing up!

Be on the lookout for a verification email in your inbox.

You'll start receiving severe weather alerts in your inbox..

×

10-Day Weather Forecast

Almanac

Astronomy

Oct. 20, 2019 Rise Set
Actual Time
Civil Twilight
Nautical Twilight
Astronomical Twilight
Moon
Length of Visible Light
Length of Day
Tomorrow will be .
, % of the Moon is Illuminated

Today's Extremes

State Highs State Lows

Community

WunderPhotos

Category 6

Welcome to Category 6. This is the collective home for Weather Underground's featured writeups by Dr. Jeff Masters (right), Bob Henson (left), Chris Burt, and other regular contributors.

Nearby

Air Quality

  Air Quality AQ Index Pollutant
Not available.

Snow Depth

Station Depth Elevation

Earthquake Activity

City Distance Mag. Time & Date
Minimum magnitude displayed is 2.5.

Coastal Water Temperatures

Place Temperature

Stations

Nearby Weather Stations

Station Location Temp. Windchill Dew Point Humidity Wind Precip. Elev Updated Type
                   

Watches & Warnings

Coastal Flood Advisory
Issued: 3:10 PM CDT Oct. 19, 2019 – National Weather Service

... Coastal flood advisory remains in effect until 7 am CDT
Sunday...

* coastal flooding... minor coastal flooding of around 1.5 to 2
feet mean higher high water or above ground level right along
the coast and around the coastal lakes and bays.

* Timing... during high tide along the coast from mid to late
Saturday evening and again early Sunday morning. Also, during
high tide in the Inland Lakes and bays during the overnight
Saturday night.

* Impacts... minor flooding of roads along the coast and roads
along the tidal waterways.

Precautionary/preparedness actions...

A coastal flood advisory indicates that onshore winds and tides
will combine to generate flooding of low areas along the shore.